Terminal Aerodrome Forecast
Issued by NWS

Current Version | Previous Version | Text Only | Print | Product List | Glossary Off
Versions: 1 2 3 4 5 6 7 8 9 10 11 12 13 14 15 16 17 18 19 20 21 22 23 24 25 26 27 28 29 30 31 32

000
FTUS41 KILN 212300
TAFLUK
TAF
KLUK 212331Z 2200/2224 32017G25KT P6SM SCT060
     FM220200 32010KT P6SM BKN050
     FM221200 34009KT P6SM SCT050
     FM221600 35007KT P6SM SKC=

USA.gov is the U.S. government's official web portal to all federal, state and local government web resources and services.